Terminal Aerodrome Forecast
Issued by NWS Wilmington, OH

Home | Current Version | Previous Version | Text Only | Print | Product List | Glossary On
Versions: 1 2 3 4 5 6 7 8 9 10 11 12 13 14 15 16 17 18 19 20 21 22 23 24 25 26
218
FTUS41 KILN 100538
TAFCVG
TAF
KCVG 100538Z 1006/1112 28010KT P6SM -SHSN OVC035
      TEMPO 1006/1010 3SM -SHSN OVC025
     FM101300 28012G20KT 3SM -SHSN OVC025
     FM101700 28014G20KT P6SM OVC025
     FM102000 28014KT P6SM OVC035
     FM110300 29008KT P6SM BKN035
     FM110900 29006KT P6SM SCT035=

USA.gov is the U.S. government's official web portal to all federal, state and local government web resources and services.